Time;durP1;ratioP1;P1;durP2;ratioP2;P2;SDS_P1;SDS_P2;PMS_P1;PMS_P2;Temp;Humidity;BMP_temperature;BMP_pressure;BME280_temperature;BME280_humidity;BME280_pressure;Samples;Min_cycle;Max_cycle;Signal;HPM_P1;HPM_P2
2022/03/05 00:00:50;;;;;;;10.27;8.07;;;1.90;77.40;;;;;;6113910;23;20246;-73
2022/03/05 00:03:17;;;;;;;11.13;8.40;;;1.80;77.40;;;;;;6112926;23;20275;-74
2022/03/05 00:05:45;;;;;;;11.02;8.05;;;1.80;77.90;;;;;;6114912;23;20196;-73
2022/03/05 00:08:12;;;;;;;10.32;8.23;;;1.70;78.20;;;;;;6119742;23;20192;-73
2022/03/05 00:10:41;;;;;;;10.25;8.25;;;1.70;78.60;;;;;;6113397;23;20220;-73
2022/03/05 00:13:08;;;;;;;10.48;8.55;;;1.70;79.20;;;;;;6109788;23;20245;-73
2022/03/05 00:15:35;;;;;;;10.85;8.23;;;1.60;79.40;;;;;;6115204;23;20230;-73
2022/03/05 00:18:02;;;;;;;10.70;9.00;;;1.60;79.60;;;;;;6117931;23;20191;-73
2022/03/05 00:20:29;;;;;;;10.50;8.20;;;1.60;79.80;;;;;;6109702;23;20220;-73
2022/03/05 00:22:56;;;;;;;10.18;8.65;;;1.50;80.10;;;;;;6114589;23;20193;-73
2022/03/05 00:25:24;;;;;;;11.35;8.43;;;1.50;80.40;;;;;;6119536;23;20271;-73
2022/03/05 00:27:54;;;;;;;11.18;8.55;;;1.50;80.70;;;;;;6112977;23;20261;-73
2022/03/05 00:30:21;;;;;;;11.15;8.50;;;1.50;80.40;;;;;;6115442;23;20595;-73
2022/03/05 00:32:48;;;;;;;11.18;8.13;;;1.50;80.40;;;;;;6110045;23;20192;-74
2022/03/05 00:35:15;;;;;;;10.20;8.95;;;1.50;80.70;;;;;;6109542;23;20605;-73
2022/03/05 00:37:42;;;;;;;9.25;8.02;;;1.50;80.70;;;;;;6109389;23;20189;-73
2022/03/05 00:40:10;;;;;;;10.77;7.88;;;1.50;80.80;;;;;;6113288;23;20262;-73
2022/03/05 00:42:38;;;;;;;11.05;9.10;;;1.50;80.80;;;;;;6116124;23;20219;-73
2022/03/05 00:45:07;;;;;;;9.63;8.63;;;1.50;81.00;;;;;;6118674;23;20588;-73
2022/03/05 00:47:34;;;;;;;10.65;7.85;;;1.50;81.00;;;;;;6106354;23;20195;-73
2022/03/05 00:50:02;;;;;;;12.02;8.68;;;1.50;81.20;;;;;;6104467;23;20306;-73
2022/03/05 00:52:28;;;;;;;8.55;6.90;;;1.40;81.40;;;;;;6116418;23;20192;-73
2022/03/05 00:54:55;;;;;;;10.88;8.20;;;1.50;81.70;;;;;;6109042;23;20268;-73
2022/03/05 00:57:22;;;;;;;10.77;8.18;;;1.40;81.80;;;;;;6119864;23;20188;-73
2022/03/05 00:59:49;;;;;;;10.70;8.95;;;1.40;82.10;;;;;;6119524;23;20223;-72
2022/03/05 01:02:17;;;;;;;8.88;7.10;;;1.40;82.40;;;;;;6116519;23;20875;-74
2022/03/05 01:04:44;;;;;;;10.35;7.53;;;1.40;82.50;;;;;;6115592;23;20198;-74
2022/03/05 01:07:11;;;;;;;11.82;8.05;;;1.40;82.70;;;;;;6120047;23;20210;-73
2022/03/05 01:09:39;;;;;;;11.20;8.30;;;1.40;83.00;;;;;;6118532;23;21535;-73
2022/03/05 01:12:06;;;;;;;8.98;7.72;;;1.40;83.10;;;;;;6120182;23;20262;-73
2022/03/05 01:14:33;;;;;;;9.73;7.53;;;1.30;83.30;;;;;;6104110;23;20184;-73
2022/03/05 01:17:01;;;;;;;11.50;8.40;;;1.30;83.40;;;;;;6116469;23;20191;-73
2022/03/05 01:19:29;;;;;;;11.93;7.88;;;1.30;83.70;;;;;;6110117;23;20261;-73
2022/03/05 01:21:56;;;;;;;9.68;7.60;;;1.30;83.90;;;;;;6105101;23;20300;-73
2022/03/05 01:24:22;;;;;;;12.15;8.57;;;1.30;84.10;;;;;;6118874;23;20578;-73
2022/03/05 01:26:50;;;;;;;8.95;7.90;;;1.30;84.30;;;;;;6112558;23;20192;-73
2022/03/05 01:29:17;;;;;;;11.60;8.43;;;1.30;84.30;;;;;;6118601;23;20575;-74
2022/03/05 01:31:43;;;;;;;9.13;7.50;;;1.30;84.70;;;;;;6117074;23;20188;-73
2022/03/05 01:34:10;;;;;;;10.38;7.60;;;1.30;84.70;;;;;;6092732;23;20192;-73
2022/03/05 01:36:39;;;;;;;10.75;7.50;;;1.30;84.90;;;;;;6110435;23;20196;-72
2022/03/05 01:39:06;;;;;;;11.05;7.45;;;1.20;84.90;;;;;;6097383;23;20189;-73
2022/03/05 01:41:33;;;;;;;10.45;7.85;;;1.20;85.20;;;;;;6119185;23;20264;-73
2022/03/05 01:44:00;;;;;;;8.60;7.03;;;1.20;85.50;;;;;;6116744;23;20200;-73
2022/03/05 01:46:31;;;;;;;10.43;8.30;;;1.20;85.80;;;;;;6108026;23;20209;-73
2022/03/05 01:48:59;;;;;;;10.25;8.13;;;1.10;86.00;;;;;;6073446;23;20540;-73
2022/03/05 01:51:26;;;;;;;9.35;7.53;;;1.10;86.00;;;;;;6099921;23;20275;-73
2022/03/05 01:53:55;;;;;;;11.13;7.78;;;1.10;86.40;;;;;;6119518;23;20192;-73
2022/03/05 01:56:25;;;;;;;10.35;8.05;;;1.10;86.50;;;;;;6109079;23;20271;-73
2022/03/05 01:58:52;;;;;;;11.13;8.68;;;1.10;86.60;;;;;;6096855;23;20280;-74
2022/03/05 02:01:21;;;;;;;12.90;8.20;;;1.10;86.60;;;;;;6117607;23;20226;-73
2022/03/05 02:03:48;;;;;;;10.25;8.07;;;1.10;86.90;;;;;;6121615;23;20263;-73
2022/03/05 02:06:15;;;;;;;10.70;8.15;;;1.10;87.00;;;;;;6111309;23;20283;-73
2022/03/05 02:08:42;;;;;;;10.77;8.13;;;1.10;87.30;;;;;;6118340;23;20177;-73
2022/03/05 02:11:11;;;;;;;8.95;7.63;;;1.10;87.50;;;;;;6113812;23;20212;-73
2022/03/05 02:13:37;;;;;;;10.23;8.73;;;1.00;87.60;;;;;;6096385;23;20185;-73
2022/03/05 02:16:05;;;;;;;10.20;8.23;;;1.00;87.90;;;;;;6095093;23;20193;-73
2022/03/05 02:18:32;;;;;;;10.85;8.27;;;1.00;88.30;;;;;;6102818;23;20667;-73
2022/03/05 02:21:01;;;;;;;11.77;7.95;;;1.00;88.40;;;;;;6114460;23;20220;-73
2022/03/05 02:23:28;;;;;;;9.57;8.00;;;0.90;88.50;;;;;;6114633;23;21003;-73
2022/03/05 02:25:58;;;;;;;13.45;8.68;;;0.90;88.90;;;;;;6107905;23;20192;-73
2022/03/05 02:28:26;;;;;;;10.27;7.93;;;0.90;89.00;;;;;;6115222;23;20544;-73
2022/03/05 02:30:54;;;;;;;9.70;7.60;;;0.90;89.10;;;;;;6119199;23;20208;-72
2022/03/05 02:33:22;;;;;;;10.48;8.15;;;0.90;89.20;;;;;;6120312;23;20196;-73
2022/03/05 02:35:49;;;;;;;9.85;8.60;;;0.90;89.30;;;;;;6106355;23;20188;-73
2022/03/05 02:38:20;;;;;;;9.60;8.23;;;0.90;89.50;;;;;;6105423;23;20189;-73
2022/03/05 02:40:49;;;;;;;11.18;8.45;;;0.90;89.60;;;;;;6117562;23;20213;-73
2022/03/05 02:43:17;;;;;;;8.50;7.28;;;0.90;89.80;;;;;;6115233;23;21471;-73
2022/03/05 02:45:44;;;;;;;11.52;8.20;;;0.90;90.00;;;;;;6103984;23;20231;-73
2022/03/05 02:48:15;;;;;;;9.88;8.15;;;0.90;90.00;;;;;;6091841;23;20273;-74
2022/03/05 02:50:44;;;;;;;9.93;7.88;;;0.90;90.20;;;;;;6114707;23;20686;-73
2022/03/05 02:53:11;;;;;;;10.77;8.60;;;0.80;90.30;;;;;;6112421;23;20189;-73
2022/03/05 02:55:40;;;;;;;13.98;8.70;;;0.80;90.50;;;;;;6117469;23;20253;-73
2022/03/05 02:58:07;;;;;;;10.43;8.30;;;0.70;90.80;;;;;;6106210;23;20189;-73
2022/03/05 03:00:34;;;;;;;13.32;8.75;;;0.60;91.00;;;;;;6113006;23;20212;-74
2022/03/05 03:03:02;;;;;;;12.45;8.20;;;0.60;91.40;;;;;;6111746;23;20220;-73
2022/03/05 03:05:29;;;;;;;11.38;8.00;;;0.60;91.60;;;;;;6115481;23;20198;-73
2022/03/05 03:07:56;;;;;;;10.23;8.20;;;0.60;91.70;;;;;;6101961;23;20202;-73
2022/03/05 03:10:23;;;;;;;10.07;7.85;;;0.60;91.60;;;;;;6119116;23;20566;-73
2022/03/05 03:12:51;;;;;;;10.15;7.50;;;0.60;91.80;;;;;;6106081;23;20588;-73
2022/03/05 03:15:18;;;;;;;12.95;8.70;;;0.60;91.80;;;;;;6101388;23;20669;-73
2022/03/05 03:17:47;;;;;;;10.98;8.50;;;0.60;91.90;;;;;;6117764;23;20302;-73
2022/03/05 03:20:15;;;;;;;11.75;8.05;;;0.60;92.20;;;;;;6116422;23;20208;-73
2022/03/05 03:22:43;;;;;;;10.18;7.90;;;0.60;92.20;;;;;;6114650;23;20695;-73
2022/03/05 03:25:11;;;;;;;10.30;7.80;;;0.60;92.50;;;;;;6116003;23;20192;-73
2022/03/05 03:27:38;;;;;;;10.35;7.43;;;0.60;92.70;;;;;;6113544;23;20195;-73
2022/03/05 03:30:10;;;;;;;11.25;8.65;;;0.60;92.70;;;;;;6105858;23;20292;-73
2022/03/05 03:32:37;;;;;;;12.02;8.77;;;0.60;92.90;;;;;;6115831;23;20211;-73
2022/03/05 03:35:05;;;;;;;11.45;8.30;;;0.60;93.00;;;;;;6103438;23;20645;-73
2022/03/05 03:37:32;;;;;;;11.18;8.38;;;0.60;93.10;;;;;;6098454;23;20185;-73
2022/03/05 03:40:01;;;;;;;9.77;8.43;;;0.60;93.10;;;;;;6115867;23;20208;-73
2022/03/05 03:42:29;;;;;;;9.90;8.23;;;0.60;93.30;;;;;;6119668;23;20219;-73
2022/03/05 03:44:56;;;;;;;12.30;8.55;;;0.60;93.30;;;;;;6117729;23;20824;-72
2022/03/05 03:47:25;;;;;;;10.73;9.15;;;0.40;93.40;;;;;;6115547;23;20184;-72
2022/03/05 03:49:52;;;;;;;9.75;8.35;;;0.40;93.80;;;;;;6117703;23;20277;-72
2022/03/05 03:52:19;;;;;;;12.05;8.15;;;0.30;94.20;;;;;;6112943;23;20192;-72
2022/03/05 03:54:48;;;;;;;11.63;8.80;;;0.30;94.40;;;;;;6117784;23;20204;-72
2022/03/05 03:57:15;;;;;;;12.88;8.45;;;0.40;94.40;;;;;;6098282;23;20196;-72
2022/03/05 03:59:42;;;;;;;12.45;9.55;;;0.30;94.60;;;;;;6114711;23;20215;-72
2022/03/05 04:02:09;;;;;;;9.52;7.85;;;0.30;94.70;;;;;;6115656;23;20311;-72
2022/03/05 04:04:38;;;;;;;10.73;8.75;;;0.30;95.10;;;;;;6118736;23;20194;-72
2022/03/05 04:09:51;;;;;;;9.98;8.48;;;0.20;95.30;;;;;;6096130;23;20217;-72
2022/03/05 04:12:18;;;;;;;10.57;8.60;;;0.20;95.40;;;;;;6116230;23;20271;-72
2022/03/05 04:14:45;;;;;;;12.43;8.98;;;0.10;95.60;;;;;;6104211;23;20279;-72
2022/03/05 04:17:11;;;;;;;10.25;8.38;;;0.10;96.10;;;;;;6105278;23;20187;-72
2022/03/05 04:19:40;;;;;;;12.00;8.73;;;0.00;96.20;;;;;;6114030;23;20294;-72
2022/03/05 04:22:07;;;;;;;9.93;8.63;;;0.00;96.50;;;;;;6116534;23;20212;-72
2022/03/05 04:24:34;;;;;;;12.18;8.85;;;-0.10;97.00;;;;;;6109038;23;20190;-72
2022/03/05 04:27:01;;;;;;;12.15;8.88;;;0.00;97.00;;;;;;6104217;23;20197;-72
2022/03/05 04:29:28;;;;;;;11.73;8.75;;;0.00;97.20;;;;;;6113320;23;20237;-72
2022/03/05 04:31:55;;;;;;;11.85;9.45;;;0.00;97.30;;;;;;6112546;23;20259;-72
2022/03/05 04:34:22;;;;;;;10.85;8.93;;;0.00;97.40;;;;;;6106944;23;20222;-72
2022/03/05 04:36:50;;;;;;;14.30;8.98;;;0.00;97.40;;;;;;6106189;23;20188;-74
2022/03/05 04:39:17;;;;;;;12.38;10.27;;;0.00;97.20;;;;;;6118203;23;20214;-72
2022/03/05 04:41:44;;;;;;;9.02;8.10;;;0.00;97.30;;;;;;6094094;23;20196;-71
2022/03/05 04:44:11;;;;;;;12.40;8.65;;;0.00;97.20;;;;;;6103304;23;20647;-72
2022/03/05 04:46:38;;;;;;;12.65;8.77;;;0.00;97.20;;;;;;6094804;23;20189;-72
2022/03/05 04:49:06;;;;;;;12.55;9.60;;;-0.10;97.50;;;;;;6120663;23;20821;-72
2022/03/05 04:51:33;;;;;;;11.68;9.50;;;0.00;97.60;;;;;;6093910;23;20271;-73
2022/03/05 04:54:01;;;;;;;11.30;8.60;;;0.00;97.40;;;;;;6093875;23;20192;-71
2022/03/05 04:56:28;;;;;;;10.85;8.07;;;-0.10;97.40;;;;;;6105877;23;20238;-72
2022/03/05 04:58:55;;;;;;;10.88;8.95;;;-0.10;97.70;;;;;;6118946;23;20219;-71
2022/03/05 05:01:22;;;;;;;11.65;8.75;;;-0.10;97.90;;;;;;6099679;23;20291;-71
2022/03/05 05:03:49;;;;;;;11.07;8.48;;;-0.10;97.90;;;;;;6115037;23;20219;-72
2022/03/05 05:06:16;;;;;;;11.70;8.93;;;-0.10;98.00;;;;;;6112167;23;20183;-72
2022/03/05 05:08:43;;;;;;;10.15;8.18;;;-0.10;98.00;;;;;;6121432;23;20208;-72
2022/03/05 05:11:12;;;;;;;11.48;9.68;;;-0.10;98.20;;;;;;6118007;23;20192;-72
2022/03/05 05:13:39;;;;;;;12.85;9.35;;;-0.10;98.30;;;;;;6117057;23;20218;-71
2022/03/05 05:16:06;;;;;;;11.48;9.15;;;-0.10;98.50;;;;;;6110778;23;20198;-71
2022/03/05 05:18:34;;;;;;;12.85;9.43;;;-0.10;98.70;;;;;;6114879;23;20214;-72
2022/03/05 05:21:01;;;;;;;10.95;8.80;;;-0.10;98.90;;;;;;6115307;23;20194;-72
2022/03/05 05:23:28;;;;;;;11.57;8.57;;;-0.10;99.00;;;;;;6119574;23;20237;-71
2022/03/05 05:25:55;;;;;;;12.85;9.63;;;-0.20;99.00;;;;;;6110633;23;20681;-72
2022/03/05 05:28:24;;;;;;;11.10;7.80;;;-0.20;99.00;;;;;;6119397;23;20238;-71
2022/03/05 05:30:50;;;;;;;10.85;8.75;;;-0.20;99.30;;;;;;6111142;23;20189;-71
2022/03/05 05:33:17;;;;;;;12.10;9.40;;;-0.20;99.30;;;;;;6106855;23;20718;-72
2022/03/05 05:35:44;;;;;;;12.15;9.23;;;-0.20;99.30;;;;;;6113801;23;20195;-72
2022/03/05 05:38:11;;;;;;;10.07;8.60;;;-0.20;99.50;;;;;;6101839;23;20267;-72
2022/03/05 05:40:38;;;;;;;11.02;8.68;;;-0.20;99.60;;;;;;6108698;23;20271;-72
2022/03/05 05:43:05;;;;;;;12.02;9.13;;;-0.20;99.70;;;;;;6113414;23;20218;-72
2022/03/05 05:45:34;;;;;;;15.15;9.82;;;-0.30;99.70;;;;;;6112750;23;20192;-72
2022/03/05 05:48:02;;;;;;;10.25;7.97;;;-0.20;99.80;;;;;;6110360;23;20592;-71
2022/03/05 05:50:29;;;;;;;11.10;9.10;;;-0.30;99.60;;;;;;6102510;23;20278;-71
2022/03/05 05:52:56;;;;;;;14.57;8.90;;;-0.20;99.90;;;;;;6107594;23;20203;-71
2022/03/05 05:55:23;;;;;;;12.32;9.63;;;-0.20;99.90;;;;;;6117885;23;20656;-72
2022/03/05 05:57:50;;;;;;;10.90;9.05;;;-0.20;99.90;;;;;;6110429;23;20663;-72
2022/03/05 06:00:17;;;;;;;11.65;9.30;;;-0.20;99.90;;;;;;6101950;23;20222;-74
2022/03/05 06:02:46;;;;;;;12.15;9.38;;;-0.20;99.90;;;;;;6110945;23;20212;-72
2022/03/05 06:05:12;;;;;;;13.57;9.82;;;-0.20;99.90;;;;;;6100016;23;20194;-71
2022/03/05 06:07:40;;;;;;;12.40;9.02;;;-0.30;99.90;;;;;;6107580;23;20189;-71
2022/03/05 06:10:09;;;;;;;12.07;9.48;;;-0.20;99.90;;;;;;6116112;23;20215;-72
2022/03/05 06:12:36;;;;;;;13.43;10.32;;;-0.20;99.90;;;;;;6120560;23;21443;-71
2022/03/05 06:15:03;;;;;;;12.88;9.80;;;-0.20;99.90;;;;;;6108303;23;20320;-72
2022/03/05 06:17:30;;;;;;;13.60;10.45;;;-0.10;99.90;;;;;;6113935;23;20187;-72
2022/03/05 06:19:59;;;;;;;14.02;10.15;;;0.10;99.90;;;;;;6108952;23;20212;-72
2022/03/05 06:22:26;;;;;;;12.55;10.13;;;0.30;99.90;;;;;;6111013;23;20191;-72
2022/03/05 06:24:53;;;;;;;12.48;9.57;;;0.60;99.90;;;;;;6115077;23;20658;-71
2022/03/05 06:27:20;;;;;;;11.50;9.43;;;1.00;99.00;;;;;;6118155;23;20188;-72
2022/03/05 06:29:47;;;;;;;15.23;10.00;;;1.50;98.10;;;;;;6110299;23;20208;-72
2022/03/05 06:32:14;;;;;;;13.68;9.75;;;2.00;97.30;;;;;;6115173;23;20317;-72
2022/03/05 06:34:41;;;;;;;13.00;10.48;;;2.50;96.50;;;;;;6103738;23;20202;-73
2022/03/05 06:37:09;;;;;;;11.85;9.40;;;2.90;94.90;;;;;;6104480;23;20226;-72
2022/03/05 06:39:37;;;;;;;12.70;9.32;;;3.70;94.20;;;;;;6111161;23;20265;-72
2022/03/05 06:42:05;;;;;;;12.10;9.23;;;4.10;92.90;;;;;;6107120;23;20183;-73
2022/03/05 06:44:32;;;;;;;10.80;9.25;;;4.50;91.80;;;;;;6108488;23;20210;-72
2022/03/05 06:46:59;;;;;;;15.13;10.68;;;5.00;91.20;;;;;;6109908;23;20184;-72
2022/03/05 06:49:26;;;;;;;15.10;10.02;;;5.30;89.10;;;;;;6109967;23;20242;-72
2022/03/05 06:51:53;;;;;;;13.68;10.02;;;5.40;87.40;;;;;;6103355;23;20217;-72
2022/03/05 06:54:21;;;;;;;12.32;10.85;;;5.60;87.30;;;;;;6115973;23;20320;-72
2022/03/05 06:56:48;;;;;;;11.25;9.65;;;5.80;86.20;;;;;;6110355;23;20190;-72
2022/03/05 06:59:15;;;;;;;11.50;9.02;;;6.00;85.10;;;;;;6102297;23;20219;-73
2022/03/05 07:01:42;;;;;;;11.65;10.25;;;6.20;84.10;;;;;;6109378;23;20184;-73
2022/03/05 07:04:09;;;;;;;11.88;10.55;;;6.50;82.20;;;;;;6106099;23;20218;-73
2022/03/05 07:06:37;;;;;;;12.93;10.98;;;6.70;81.40;;;;;;6106557;23;20256;-73
2022/03/05 07:09:04;;;;;;;12.18;10.15;;;7.00;79.70;;;;;;6111260;23;20261;-73
2022/03/05 07:11:33;;;;;;;14.57;12.25;;;7.30;78.30;;;;;;6109069;23;20218;-73
2022/03/05 07:14:00;;;;;;;16.63;12.48;;;7.50;77.30;;;;;;6112635;23;20235;-73
2022/03/05 07:16:27;;;;;;;13.32;11.65;;;7.80;76.70;;;;;;6105697;23;20198;-73
2022/03/05 07:18:54;;;;;;;13.30;10.88;;;7.80;75.10;;;;;;6101918;23;20215;-73
2022/03/05 07:21:21;;;;;;;14.95;11.07;;;7.90;74.30;;;;;;6099347;23;20192;-72
2022/03/05 07:23:48;;;;;;;15.60;11.10;;;8.00;74.00;;;;;;6110209;23;20257;-73
2022/03/05 07:26:17;;;;;;;15.00;12.10;;;8.00;73.50;;;;;;6104433;23;20635;-74
2022/03/05 07:28:45;;;;;;;15.68;11.15;;;8.30;72.40;;;;;;6103711;23;20207;-74
2022/03/05 07:31:13;;;;;;;14.20;11.35;;;8.70;72.30;;;;;;6113755;23;20192;-74
2022/03/05 07:33:39;;;;;;;13.85;11.52;;;9.10;71.80;;;;;;6107786;23;20249;-74
2022/03/05 07:36:06;;;;;;;14.20;11.80;;;9.50;69.20;;;;;;6100315;23;20184;-74
2022/03/05 07:38:34;;;;;;;13.98;12.45;;;9.60;68.10;;;;;;6117322;23;20620;-74
2022/03/05 07:41:02;;;;;;;12.32;11.02;;;9.50;67.10;;;;;;6116152;23;20184;-79
2022/03/05 07:43:28;;;;;;;13.55;12.00;;;9.40;67.10;;;;;;6106593;23;20221;-74
2022/03/05 07:45:57;;;;;;;14.50;11.73;;;9.40;67.70;;;;;;6110921;23;20691;-73
2022/03/05 07:48:25;;;;;;;14.80;12.23;;;9.10;66.90;;;;;;6114800;23;20224;-73
2022/03/05 07:50:52;;;;;;;13.95;11.65;;;9.40;67.10;;;;;;6114175;23;21296;-73
2022/03/05 07:53:19;;;;;;;14.95;12.35;;;9.40;66.50;;;;;;6111165;23;20270;-74
2022/03/05 07:55:47;;;;;;;13.07;11.52;;;9.10;66.50;;;;;;6116036;23;20187;-73
2022/03/05 07:58:14;;;;;;;13.45;12.05;;;9.30;67.40;;;;;;6115843;23;20204;-74
2022/03/05 08:00:41;;;;;;;14.98;11.27;;;9.60;67.50;;;;;;6120306;23;20240;-74
2022/03/05 08:03:09;;;;;;;13.93;12.27;;;9.80;66.20;;;;;;6107886;23;20675;-74
2022/03/05 08:05:36;;;;;;;15.13;12.20;;;9.70;66.30;;;;;;6106130;23;20191;-78
2022/03/05 08:08:04;;;;;;;15.65;12.98;;;9.80;66.60;;;;;;6102128;23;20201;-73
2022/03/05 08:10:31;;;;;;;13.10;11.45;;;10.00;64.50;;;;;;6106705;23;20591;-74
2022/03/05 08:12:58;;;;;;;14.00;11.30;;;10.30;64.70;;;;;;6108939;23;20217;-75
2022/03/05 08:15:26;;;;;;;15.80;12.65;;;10.80;64.00;;;;;;6116049;23;20264;-76
2022/03/05 08:17:56;;;;;;;17.35;13.50;;;11.00;62.60;;;;;;6107335;23;20272;-75
2022/03/05 08:20:25;;;;;;;13.63;12.23;;;10.90;62.10;;;;;;6108806;23;20187;-76
2022/03/05 08:22:53;;;;;;;14.00;12.50;;;10.50;62.50;;;;;;6115943;23;20262;-74
2022/03/05 08:25:20;;;;;;;14.10;11.77;;;10.50;62.40;;;;;;6113165;23;20218;-73
2022/03/05 08:27:47;;;;;;;15.55;12.65;;;10.80;62.10;;;;;;6109550;23;20599;-76
2022/03/05 08:30:16;;;;;;;13.73;12.10;;;10.80;62.10;;;;;;6114360;23;20182;-73
2022/03/05 08:32:43;;;;;;;16.88;12.90;;;10.70;61.80;;;;;;6107311;23;20237;-73
2022/03/05 08:35:11;;;;;;;12.60;11.10;;;10.70;61.20;;;;;;6111091;23;20193;-75
2022/03/05 08:37:40;;;;;;;13.32;11.32;;;10.80;61.00;;;;;;6110874;23;20193;-75
2022/03/05 08:40:10;;;;;;;16.20;12.75;;;11.00;61.40;;;;;;6108848;23;20273;-76
2022/03/05 08:42:37;;;;;;;14.55;13.05;;;11.30;60.20;;;;;;6108298;23;20293;-75
2022/03/05 08:45:06;;;;;;;14.80;12.32;;;11.70;60.30;;;;;;6114294;23;20223;-76
2022/03/05 08:47:33;;;;;;;14.50;12.75;;;12.00;59.60;;;;;;6112546;23;20187;-75
2022/03/05 08:50:00;;;;;;;14.93;12.30;;;12.20;59.30;;;;;;6115562;23;20203;-75
2022/03/05 08:52:28;;;;;;;12.95;11.65;;;12.40;58.80;;;;;;6103762;23;20188;-74
2022/03/05 08:54:57;;;;;;;15.65;12.35;;;12.30;58.90;;;;;;6110877;23;20190;-74
2022/03/05 08:57:24;;;;;;;15.27;12.15;;;12.00;58.80;;;;;;6114924;23;20245;-74
2022/03/05 08:59:51;;;;;;;13.20;11.90;;;11.80;59.00;;;;;;6109063;23;20298;-75
2022/03/05 09:02:17;;;;;;;13.27;11.93;;;11.90;58.40;;;;;;6111909;23;20179;-74
2022/03/05 09:04:44;;;;;;;14.77;12.32;;;12.00;58.30;;;;;;6110738;23;20707;-76
2022/03/05 09:07:12;;;;;;;15.70;12.35;;;12.20;58.20;;;;;;6112274;23;20188;-75
2022/03/05 09:09:39;;;;;;;14.10;12.63;;;12.50;58.20;;;;;;6115873;23;20655;-75
2022/03/05 09:12:08;;;;;;;13.82;11.55;;;12.40;56.90;;;;;;6116668;23;20201;-75
2022/03/05 09:14:35;;;;;;;14.00;12.60;;;12.20;57.40;;;;;;6121089;23;20178;-75
2022/03/05 09:17:02;;;;;;;12.85;11.52;;;11.70;57.80;;;;;;6120451;23;20197;-75
2022/03/05 09:19:29;;;;;;;13.23;11.82;;;11.90;57.50;;;;;;6120216;23;20867;-75
2022/03/05 09:21:56;;;;;;;12.90;11.57;;;12.00;57.00;;;;;;6120167;23;20259;-75
2022/03/05 09:24:23;;;;;;;13.13;11.70;;;12.00;56.60;;;;;;6120667;23;20257;-75
2022/03/05 09:26:49;;;;;;;13.88;12.48;;;12.00;56.50;;;;;;6119573;23;20191;-75
2022/03/05 09:29:19;;;;;;;12.68;11.38;;;11.80;56.20;;;;;;6120017;23;20282;-74
2022/03/05 09:31:46;;;;;;;13.30;11.50;;;11.80;56.20;;;;;;6120311;23;20641;-75
2022/03/05 09:34:13;;;;;;;12.13;10.88;;;11.90;56.20;;;;;;6120523;23;20187;-75
2022/03/05 09:36:40;;;;;;;12.85;11.55;;;11.90;55.60;;;;;;6120340;23;20213;-75
2022/03/05 09:39:08;;;;;;;13.60;12.20;;;12.00;55.90;;;;;;6120152;23;20207;-75
2022/03/05 09:41:35;;;;;;;13.30;11.90;;;12.60;55.20;;;;;;6118752;23;20184;-76
2022/03/05 09:44:02;;;;;;;13.00;11.70;;;13.00;54.30;;;;;;6117811;23;20217;-76
2022/03/05 09:46:30;;;;;;;18.35;11.93;;;13.40;54.10;;;;;;6120249;23;20195;-76
2022/03/05 09:48:59;;;;;;;12.65;11.45;;;13.90;53.10;;;;;;6112156;23;20204;-74
2022/03/05 09:51:27;;;;;;;13.10;11.05;;;14.30;52.90;;;;;;6106316;23;20187;-73
2022/03/05 09:53:55;;;;;;;11.40;10.30;;;14.20;52.20;;;;;;6120622;23;20222;-73
2022/03/05 09:56:23;;;;;;;11.38;10.27;;;13.90;50.40;;;;;;6106056;23;20196;-74
2022/03/05 09:58:52;;;;;;;12.73;9.60;;;13.80;52.40;;;;;;6102313;23;20218;-73
2022/03/05 10:01:20;;;;;;;11.60;10.35;;;13.90;50.40;;;;;;6113775;23;20188;-80
2022/03/05 10:03:50;;;;;;;11.23;10.13;;;13.30;49.70;;;;;;6112892;23;20203;-76
2022/03/05 10:06:19;;;;;;;11.82;10.20;;;13.30;50.40;;;;;;6112268;23;20183;-75
2022/03/05 10:08:47;;;;;;;10.60;9.23;;;12.90;50.60;;;;;;6107377;23;20206;-76
2022/03/05 10:11:14;;;;;;;9.75;8.73;;;12.60;50.80;;;;;;6106316;23;20203;-75
2022/03/05 10:13:43;;;;;;;11.15;9.90;;;11.80;50.10;;;;;;6117000;23;20269;-75
2022/03/05 10:16:24;;;;;;;10.82;8.60;;;10.90;51.30;;;;;;6118320;23;20205;-75
2022/03/05 10:18:54;;;;;;;9.18;7.90;;;9.80;53.40;;;;;;6111248;23;20247;-75
2022/03/05 10:21:29;;;;;;;9.05;7.78;;;9.50;53.60;;;;;;6114065;23;20560;-75
2022/03/05 10:24:07;;;;;;;9.20;8.20;;;9.70;52.80;;;;;;6105083;23;20217;-75
2022/03/05 10:26:51;;;;;;;10.95;8.55;;;9.90;52.70;;;;;;6105537;23;20183;-76
2022/03/05 10:29:23;;;;;;;9.02;8.13;;;10.50;51.90;;;;;;6117665;23;20328;-76
2022/03/05 10:32:01;;;;;;;10.40;9.40;;;11.30;52.00;;;;;;6113872;23;20194;-76
2022/03/05 10:34:52;;;;;;;9.52;8.40;;;11.80;50.60;;;;;;6109884;23;20963;-76
2022/03/05 10:37:20;;;;;;;9.57;8.68;;;11.40;50.00;;;;;;6111136;23;20189;-76
2022/03/05 10:39:48;;;;;;;9.68;8.73;;;10.70;50.40;;;;;;6110149;23;20646;-76
2022/03/05 10:42:19;;;;;;;9.65;7.95;;;10.70;50.50;;;;;;6105675;23;20552;-75
2022/03/05 10:45:00;;;;;;;9.18;8.27;;;10.10;50.70;;;;;;6116481;23;20213;-78
2022/03/05 10:47:36;;;;;;;8.82;7.93;;;10.30;51.70;;;;;;6109313;23;20208;-78
2022/03/05 10:50:08;;;;;;;9.73;8.25;;;10.80;51.20;;;;;;6116860;23;20197;-80
2022/03/05 10:52:45;;;;;;;7.03;6.35;;;11.50;50.00;;;;;;6109611;23;20248;-76
2022/03/05 10:55:17;;;;;;;8.00;6.80;;;11.40;46.70;;;;;;6109405;23;20194;-76
2022/03/05 10:57:57;;;;;;;6.90;6.22;;;10.90;47.30;;;;;;6097788;23;20216;-76
2022/03/05 11:00:24;;;;;;;7.22;6.53;;;10.60;47.80;;;;;;6109564;23;20206;-76
2022/03/05 11:02:51;;;;;;;8.23;6.65;;;10.80;47.30;;;;;;6114706;23;20175;-76
2022/03/05 11:05:21;;;;;;;6.32;5.72;;;10.70;47.50;;;;;;6111430;23;20210;-76
2022/03/05 11:07:49;;;;;;;6.90;6.30;;;11.00;47.40;;;;;;6112569;23;20206;-75
2022/03/05 11:10:18;;;;;;;7.50;6.80;;;10.40;47.20;;;;;;6111448;23;20187;-77
2022/03/05 11:12:51;;;;;;;7.15;6.53;;;10.30;48.80;;;;;;6113863;23;20522;-75
2022/03/05 11:15:19;;;;;;;7.65;6.85;;;10.50;48.40;;;;;;6109145;23;20185;-77
2022/03/05 11:17:47;;;;;;;8.23;7.40;;;10.70;48.30;;;;;;6105898;23;20215;-77
2022/03/05 11:20:15;;;;;;;8.52;7.32;;;9.80;50.10;;;;;;6113866;23;20189;-75
2022/03/05 11:22:49;;;;;;;8.65;7.20;;;9.00;50.50;;;;;;6105401;23;20556;-80
2022/03/05 11:25:18;;;;;;;8.50;7.25;;;9.20;50.60;;;;;;6113289;23;20250;-76
2022/03/05 11:28:00;;;;;;;7.90;7.10;;;9.30;50.70;;;;;;6103104;23;20626;-76
2022/03/05 11:30:27;;;;;;;7.85;7.15;;;8.80;51.20;;;;;;6106438;23;20222;-75
2022/03/05 11:32:55;;;;;;;9.27;7.75;;;8.60;52.30;;;;;;6117323;23;20270;-75
2022/03/05 11:35:25;;;;;;;8.18;7.38;;;8.80;51.90;;;;;;6094226;23;20205;-75
2022/03/05 11:37:53;;;;;;;8.73;7.47;;;9.30;51.90;;;;;;6106620;23;20214;-74
2022/03/05 11:40:36;;;;;;;9.00;8.10;;;9.90;51.10;;;;;;6105114;23;20662;-76
2022/03/05 11:43:17;;;;;;;8.43;7.63;;;10.60;49.40;;;;;;6111132;23;20532;-79
2022/03/05 11:45:49;;;;;;;9.52;8.63;;;11.40;49.50;;;;;;6103487;23;20215;-76
2022/03/05 11:48:27;;;;;;;9.52;8.25;;;11.90;48.50;;;;;;6103870;23;20242;-76
2022/03/05 11:50:56;;;;;;;8.30;7.50;;;12.00;47.70;;;;;;6098978;23;20254;-76
2022/03/05 11:53:25;;;;;;;8.68;7.88;;;12.30;47.90;;;;;;6093151;23;20264;-75
2022/03/05 11:55:52;;;;;;;8.35;7.55;;;12.90;46.70;;;;;;6110674;23;20270;-76
2022/03/05 11:58:33;;;;;;;7.70;7.00;;;13.60;45.90;;;;;;6110367;23;20215;-77
2022/03/05 12:01:34;;;;;;;7.63;6.93;;;14.70;44.90;;;;;;6117836;23;20237;-76
2022/03/05 12:04:16;;;;;;;8.27;7.47;;;14.40;42.50;;;;;;6113607;23;20446;-77
2022/03/05 12:06:44;;;;;;;9.32;8.43;;;13.30;43.80;;;;;;6102682;23;20196;-76
2022/03/05 12:09:32;;;;;;;8.85;7.95;;;12.00;45.10;;;;;;6102086;23;20186;-77
2022/03/05 12:12:00;;;;;;;8.50;7.50;;;11.60;46.20;;;;;;6101419;23;20547;-77
2022/03/05 12:15:01;;;;;;;8.80;7.47;;;11.70;46.10;;;;;;6109079;23;20183;-76
2022/03/05 12:17:34;;;;;;;8.77;7.97;;;12.20;47.00;;;;;;6095539;23;20696;-76
2022/03/05 12:20:01;;;;;;;10.95;7.78;;;12.70;44.80;;;;;;6110693;23;20187;-77
2022/03/05 12:22:28;;;;;;;9.55;8.65;;;13.30;45.60;;;;;;6098199;23;20180;-77
2022/03/05 12:24:57;;;;;;;9.25;8.45;;;13.50;44.50;;;;;;6115728;23;20274;-77
2022/03/05 12:27:29;;;;;;;9.00;8.10;;;13.20;45.10;;;;;;6109499;23;20282;-77
2022/03/05 12:29:57;;;;;;;7.90;7.10;;;12.70;45.10;;;;;;6111069;23;20190;-77
2022/03/05 12:32:30;;;;;;;7.72;7.03;;;13.00;45.80;;;;;;6113353;23;20535;-76
2022/03/05 12:35:03;;;;;;;7.68;7.00;;;13.60;45.00;;;;;;6110058;23;20613;-76
2022/03/05 12:37:31;;;;;;;5.80;5.30;;;13.60;43.50;;;;;;6105431;23;20208;-76
2022/03/05 12:40:00;;;;;;;6.75;6.07;;;13.80;43.10;;;;;;6117010;23;20267;-75
2022/03/05 12:42:36;;;;;;;7.13;6.43;;;13.90;43.10;;;;;;6113786;23;20267;-76
2022/03/05 12:45:03;;;;;;;7.60;6.90;;;14.20;42.30;;;;;;6108169;23;20195;-77
2022/03/05 12:47:34;;;;;;;6.43;5.70;;;14.40;42.20;;;;;;6107611;23;20207;-77
2022/03/05 12:50:20;;;;;;;6.30;5.70;;;14.10;41.60;;;;;;6104657;23;20202;-77
2022/03/05 12:52:59;;;;;;;6.03;5.40;;;14.70;41.80;;;;;;6103159;23;20280;-76